Time;durP1;ratioP1;P1;durP2;ratioP2;P2;SDS_P1;SDS_P2;PMS_P1;PMS_P2;Temp;Humidity;BMP_temperature;BMP_pressure;BME280_temperature;BME280_humidity;BME280_pressure;Samples;Min_cycle;Max_cycle;Signal;HPM_P1;HPM_P2
2023/12/28 00:00:56;;;;;;;2.35;1.60;;;12.70;99.90;;;;;;5037525;28;20127;-26
2023/12/28 00:03:21;;;;;;;2.50;1.73;;;12.70;99.90;;;;;;5037874;28;20112;-26
2023/12/28 00:05:47;;;;;;;2.80;1.83;;;12.70;99.90;;;;;;5038803;28;20510;-27
2023/12/28 00:08:13;;;;;;;2.43;1.60;;;12.60;99.90;;;;;;5026592;28;20036;-26
2023/12/28 00:10:39;;;;;;;2.33;1.50;;;12.60;99.90;;;;;;5022545;28;20447;-27
2023/12/28 00:13:05;;;;;;;1.95;1.30;;;12.60;99.90;;;;;;5034512;28;20035;-25
2023/12/28 00:15:30;;;;;;;3.33;1.60;;;12.60;99.90;;;;;;5037217;28;20063;-24
2023/12/28 00:17:56;;;;;;;1.90;1.30;;;12.60;99.90;;;;;;5040933;28;20041;-24
2023/12/28 00:20:22;;;;;;;2.30;1.33;;;12.60;99.90;;;;;;5037651;28;20052;-26
2023/12/28 00:22:47;;;;;;;2.60;1.40;;;12.60;99.90;;;;;;5031365;28;20025;-26
2023/12/28 00:25:14;;;;;;;3.88;1.90;;;12.50;99.90;;;;;;5036624;28;21013;-29
2023/12/28 00:27:40;;;;;;;3.15;1.83;;;12.50;99.90;;;;;;5035372;28;20017;-26
2023/12/28 00:30:06;;;;;;;2.60;1.60;;;12.60;99.90;;;;;;5033566;28;20490;-23
2023/12/28 00:32:32;;;;;;;3.10;1.60;;;12.60;99.90;;;;;;5039026;28;20025;-23
2023/12/28 00:34:57;;;;;;;2.30;1.60;;;12.60;99.90;;;;;;5038435;28;20517;-25
2023/12/28 00:37:23;;;;;;;3.15;1.60;;;12.60;99.90;;;;;;5038892;28;20025;-26
2023/12/28 00:39:50;;;;;;;2.37;1.40;;;12.60;99.90;;;;;;5042012;28;20083;-26
2023/12/28 00:42:16;;;;;;;2.53;1.58;;;12.60;99.90;;;;;;5022323;28;20112;-22
2023/12/28 00:44:41;;;;;;;2.38;1.40;;;12.60;99.90;;;;;;5039283;28;20232;-25
2023/12/28 00:47:07;;;;;;;3.97;1.67;;;12.60;99.90;;;;;;5036042;28;20418;-29
2023/12/28 00:49:33;;;;;;;2.20;1.43;;;12.60;99.90;;;;;;5037644;28;20033;-27
2023/12/28 00:51:59;;;;;;;4.70;1.77;;;12.60;99.90;;;;;;5037891;28;20056;-25
2023/12/28 00:54:24;;;;;;;3.87;1.70;;;12.60;99.90;;;;;;5043191;28;20041;-26
2023/12/28 00:56:51;;;;;;;3.10;1.40;;;12.60;99.90;;;;;;5037386;28;20115;-25
2023/12/28 00:59:16;;;;;;;3.38;1.70;;;12.70;99.90;;;;;;5034920;28;20494;-24
2023/12/28 01:01:42;;;;;;;2.58;1.80;;;12.60;99.90;;;;;;5037228;28;20053;-23
2023/12/28 01:04:08;;;;;;;3.53;1.60;;;12.60;99.90;;;;;;5037190;28;20048;-24
2023/12/28 01:06:33;;;;;;;2.67;1.50;;;12.70;99.90;;;;;;5038659;28;20036;-26
2023/12/28 01:08:59;;;;;;;2.90;1.30;;;12.70;99.90;;;;;;5038636;28;20039;-24
2023/12/28 01:11:25;;;;;;;2.40;1.27;;;12.60;99.90;;;;;;5037413;28;20669;-26
2023/12/28 01:13:52;;;;;;;1.93;1.40;;;12.60;99.90;;;;;;5037606;28;20411;-28
2023/12/28 01:16:17;;;;;;;2.42;1.52;;;12.60;99.90;;;;;;5036623;28;20025;-25
2023/12/28 01:18:43;;;;;;;2.60;1.40;;;12.60;99.90;;;;;;5034377;28;20553;-30
2023/12/28 01:21:09;;;;;;;2.33;1.55;;;12.60;99.90;;;;;;5038523;28;20494;-23
2023/12/28 01:23:35;;;;;;;3.35;1.63;;;12.60;99.90;;;;;;5037399;28;20036;-25
2023/12/28 01:26:00;;;;;;;3.07;1.40;;;12.60;99.90;;;;;;5037116;28;20697;-25
2023/12/28 01:28:27;;;;;;;4.07;1.67;;;12.60;99.90;;;;;;5035550;28;20513;-25
2023/12/28 01:30:52;;;;;;;2.65;1.55;;;12.60;99.90;;;;;;5034906;28;20112;-26
2023/12/28 01:33:18;;;;;;;4.85;1.60;;;12.60;99.90;;;;;;5037637;28;20124;-26
2023/12/28 01:35:44;;;;;;;3.17;1.73;;;12.70;99.90;;;;;;5038719;28;20494;-25
2023/12/28 01:38:09;;;;;;;3.97;1.70;;;12.60;99.90;;;;;;5035897;28;20037;-23
2023/12/28 01:40:35;;;;;;;2.97;1.70;;;12.70;99.90;;;;;;5035104;28;20131;-25
2023/12/28 01:43:00;;;;;;;3.30;1.40;;;12.70;99.90;;;;;;5041647;28;20048;-23
2023/12/28 01:45:26;;;;;;;3.43;2.03;;;12.70;99.90;;;;;;5037010;28;20245;-25
2023/12/28 01:47:54;;;;;;;2.72;1.60;;;12.70;99.90;;;;;;5036250;28;20036;-24
2023/12/28 01:50:22;;;;;;;4.38;1.65;;;12.70;99.90;;;;;;5031901;28;20026;-25
2023/12/28 01:52:48;;;;;;;2.77;1.60;;;12.70;99.90;;;;;;5033631;28;20400;-27
2023/12/28 01:55:14;;;;;;;2.72;1.50;;;12.70;99.90;;;;;;5036393;28;20041;-29
2023/12/28 01:57:40;;;;;;;3.42;1.65;;;12.70;99.90;;;;;;5033033;28;20033;-25
2023/12/28 02:00:07;;;;;;;3.87;2.10;;;12.70;99.90;;;;;;5037926;28;20053;-24
2023/12/28 02:02:34;;;;;;;3.42;1.80;;;12.70;99.90;;;;;;5034512;28;20049;-25
2023/12/28 02:05:00;;;;;;;3.70;1.70;;;12.70;99.90;;;;;;5033646;28;20017;-25
2023/12/28 02:07:27;;;;;;;2.97;1.70;;;12.70;99.90;;;;;;5040023;28;20049;-24
2023/12/28 02:09:52;;;;;;;2.47;1.70;;;12.70;99.90;;;;;;5034728;28;20116;-25
2023/12/28 02:12:18;;;;;;;2.77;1.30;;;12.70;99.90;;;;;;5034848;28;20558;-25
2023/12/28 02:14:46;;;;;;;2.92;1.38;;;12.70;99.90;;;;;;5005447;28;20507;-25
2023/12/28 02:17:32;;;;;;;1.85;1.48;;;12.70;99.90;;;;;;5031998;28;20032;-27
2023/12/28 02:19:58;;;;;;;2.67;1.60;;;12.70;99.90;;;;;;5020713;28;20033;-27
2023/12/28 02:22:26;;;;;;;2.63;1.40;;;12.70;99.90;;;;;;5036692;28;20149;-25
2023/12/28 02:25:13;;;;;;;2.90;1.40;;;12.70;99.90;;;;;;5035529;28;20109;-23
2023/12/28 02:27:46;;;;;;;5.95;2.38;;;12.70;99.90;;;;;;5036241;28;20026;-24
2023/12/28 02:30:13;;;;;;;2.88;1.50;;;12.80;99.90;;;;;;5036922;28;20017;-25
2023/12/28 02:33:23;;;;;;;4.60;1.63;;;12.80;99.90;;;;;;5037305;28;20032;-26
2023/12/28 02:35:57;;;;;;;2.50;1.67;;;12.70;99.90;;;;;;5037778;28;20049;-26
2023/12/28 02:38:24;;;;;;;2.88;1.40;;;12.80;99.90;;;;;;5028584;28;20202;-25
2023/12/28 02:40:50;;;;;;;3.97;1.70;;;12.80;99.90;;;;;;5023265;28;20402;-27
2023/12/28 02:43:16;;;;;;;2.65;1.55;;;12.80;99.90;;;;;;5039685;28;20039;-24
2023/12/28 02:45:42;;;;;;;2.30;1.47;;;12.80;99.90;;;;;;5039946;28;20029;-28
2023/12/28 02:48:08;;;;;;;3.15;1.42;;;12.80;99.90;;;;;;5039430;28;20063;-29
2023/12/28 02:50:35;;;;;;;3.30;1.83;;;12.90;99.90;;;;;;5025405;28;20029;-28
2023/12/28 02:53:01;;;;;;;2.57;1.40;;;12.90;99.90;;;;;;5038246;28;20637;-25
2023/12/28 02:55:27;;;;;;;3.38;1.50;;;12.90;99.90;;;;;;5037734;28;20463;-24
2023/12/28 02:57:59;;;;;;;5.05;1.65;;;12.90;99.90;;;;;;5042648;28;20029;-24
2023/12/28 03:00:25;;;;;;;2.33;1.27;;;13.00;99.90;;;;;;5042400;28;20457;-27
2023/12/28 03:02:50;;;;;;;4.23;1.53;;;13.00;99.90;;;;;;5040523;28;20136;-25
2023/12/28 03:05:17;;;;;;;3.58;1.48;;;12.90;99.90;;;;;;5036858;28;20116;-27
2023/12/28 03:07:44;;;;;;;2.45;1.45;;;13.00;99.90;;;;;;5038370;28;20025;-25
2023/12/28 03:10:11;;;;;;;2.65;1.30;;;12.90;99.90;;;;;;5040093;28;20475;-24
2023/12/28 03:12:37;;;;;;;2.77;1.43;;;13.00;99.90;;;;;;5040181;28;20041;-25
2023/12/28 03:15:04;;;;;;;3.90;1.45;;;13.00;99.90;;;;;;5039134;28;20498;-21
2023/12/28 03:17:30;;;;;;;4.47;1.70;;;12.90;99.90;;;;;;5041071;28;20052;-22
2023/12/28 03:19:58;;;;;;;2.72;1.50;;;13.00;99.90;;;;;;5039645;28;20490;-20
2023/12/28 03:22:23;;;;;;;2.60;1.40;;;13.00;99.90;;;;;;5037668;28;20391;-19
2023/12/28 03:24:49;;;;;;;3.23;1.73;;;13.00;99.90;;;;;;5039923;28;20261;-20
2023/12/28 03:27:15;;;;;;;3.93;1.60;;;13.00;99.90;;;;;;5040491;28;20287;-24
2023/12/28 03:29:42;;;;;;;3.97;1.50;;;13.00;99.90;;;;;;5038933;28;20053;-20
2023/12/28 03:32:08;;;;;;;3.05;1.50;;;13.00;99.90;;;;;;5042965;28;20360;-22
2023/12/28 03:34:34;;;;;;;5.25;1.70;;;13.00;99.90;;;;;;5026561;28;20047;-20
2023/12/28 03:37:00;;;;;;;3.70;1.40;;;13.00;99.90;;;;;;5037218;28;20084;-22
2023/12/28 03:39:26;;;;;;;3.55;1.42;;;13.00;99.90;;;;;;5037639;28;20025;-20
2023/12/28 03:41:53;;;;;;;3.78;1.48;;;13.00;99.90;;;;;;5038906;28;20080;-19
2023/12/28 03:44:20;;;;;;;3.63;1.38;;;13.00;99.90;;;;;;5042646;28;21305;-20
2023/12/28 03:46:47;;;;;;;3.80;1.38;;;13.00;99.90;;;;;;5027055;28;20501;-21
2023/12/28 03:49:18;;;;;;;2.97;1.30;;;13.00;99.90;;;;;;5040858;28;20025;-20
2023/12/28 03:51:45;;;;;;;3.00;1.38;;;12.90;99.90;;;;;;5040995;28;20518;-22
2023/12/28 03:54:11;;;;;;;3.83;1.30;;;13.00;99.90;;;;;;5037722;28;20130;-23
2023/12/28 03:56:39;;;;;;;3.40;1.10;;;12.90;99.90;;;;;;5035431;28;20029;-20
2023/12/28 03:59:06;;;;;;;4.47;1.27;;;13.00;99.90;;;;;;5038214;28;20309;-22
2023/12/28 04:01:32;;;;;;;2.80;1.30;;;13.00;99.90;;;;;;5038962;28;20462;-21
2023/12/28 04:03:58;;;;;;;4.97;1.30;;;13.00;99.90;;;;;;5037955;28;20022;-22
2023/12/28 04:06:24;;;;;;;2.00;1.20;;;13.00;99.90;;;;;;5037424;28;20029;-21
2023/12/28 04:08:49;;;;;;;3.63;1.40;;;13.00;99.90;;;;;;5039346;28;20046;-21
2023/12/28 04:11:15;;;;;;;4.50;1.40;;;13.00;99.90;;;;;;5036460;28;20035;-21
2023/12/28 04:13:41;;;;;;;3.97;1.30;;;13.00;99.90;;;;;;5033068;28;20031;-21
2023/12/28 04:16:09;;;;;;;2.22;1.40;;;13.00;99.90;;;;;;5036116;28;20466;-20
2023/12/28 04:18:35;;;;;;;3.08;1.48;;;13.00;99.90;;;;;;5037596;28;20028;-20
2023/12/28 04:21:01;;;;;;;3.03;1.20;;;13.00;99.90;;;;;;5033993;28;20091;-24
2023/12/28 04:23:26;;;;;;;3.72;1.10;;;13.00;99.90;;;;;;5037595;28;20048;-22
2023/12/28 04:25:52;;;;;;;3.07;1.40;;;13.00;99.90;;;;;;5020887;28;20103;-24
2023/12/28 04:28:18;;;;;;;2.78;1.50;;;13.00;99.90;;;;;;5038114;28;20036;-27
2023/12/28 04:30:43;;;;;;;4.27;1.50;;;13.00;99.90;;;;;;5042498;28;20061;-23
2023/12/28 04:33:09;;;;;;;1.98;1.10;;;13.00;99.90;;;;;;5038808;28;20487;-29
2023/12/28 04:35:35;;;;;;;2.60;1.33;;;13.00;99.90;;;;;;5039533;28;20122;-25
2023/12/28 04:38:00;;;;;;;3.90;1.35;;;13.00;99.90;;;;;;5035439;28;20029;-26
2023/12/28 04:40:26;;;;;;;3.60;1.10;;;13.00;99.90;;;;;;5039799;28;20033;-24
2023/12/28 04:42:52;;;;;;;3.25;1.20;;;13.00;99.90;;;;;;5036859;28;20032;-29
2023/12/28 04:45:17;;;;;;;2.77;1.17;;;13.00;99.90;;;;;;5039429;28;20051;-26
2023/12/28 04:47:43;;;;;;;4.32;1.10;;;13.00;99.90;;;;;;5038477;28;20104;-25
2023/12/28 04:50:09;;;;;;;3.90;1.07;;;13.00;99.90;;;;;;5034225;28;20033;-26
2023/12/28 04:52:34;;;;;;;4.03;1.30;;;13.00;99.90;;;;;;5036875;28;20032;-25
2023/12/28 04:55:00;;;;;;;5.17;1.40;;;13.10;99.90;;;;;;5022317;28;20025;-25
2023/12/28 04:57:27;;;;;;;3.75;1.30;;;13.10;99.90;;;;;;5038166;28;20040;-24
2023/12/28 04:59:54;;;;;;;3.35;1.50;;;13.10;99.90;;;;;;5042660;28;20187;-27
2023/12/28 05:02:20;;;;;;;4.90;1.40;;;13.10;99.90;;;;;;5040118;28;20033;-25
2023/12/28 05:04:45;;;;;;;3.58;1.20;;;13.20;99.90;;;;;;5021800;28;20065;-24
2023/12/28 05:07:11;;;;;;;7.13;1.33;;;13.20;99.90;;;;;;5039307;28;20028;-32
2023/12/28 05:09:37;;;;;;;5.00;1.50;;;13.10;99.90;;;;;;5037701;28;20345;-25
2023/12/28 05:12:03;;;;;;;2.97;1.00;;;13.10;99.90;;;;;;5022360;28;20029;-27
2023/12/28 05:14:29;;;;;;;5.85;1.58;;;13.10;99.90;;;;;;5035499;28;20136;-26
2023/12/28 05:16:54;;;;;;;3.37;1.00;;;13.10;99.90;;;;;;5036512;28;20057;-23
2023/12/28 05:19:20;;;;;;;3.85;1.15;;;13.10;99.90;;;;;;5041127;28;20029;-25
2023/12/28 05:21:46;;;;;;;6.03;1.17;;;13.00;99.90;;;;;;5034521;28;20632;-26
2023/12/28 05:24:12;;;;;;;6.28;1.50;;;13.00;99.90;;;;;;5036695;28;20032;-25
2023/12/28 05:26:38;;;;;;;3.97;1.20;;;13.00;99.90;;;;;;5032906;28;20018;-27
2023/12/28 05:29:04;;;;;;;3.30;1.03;;;13.00;99.90;;;;;;5034828;28;20232;-28
2023/12/28 05:31:29;;;;;;;5.53;1.20;;;13.00;99.90;;;;;;5037437;28;20021;-25
2023/12/28 05:33:56;;;;;;;4.00;1.23;;;13.10;99.90;;;;;;5039318;28;20501;-27
2023/12/28 05:36:22;;;;;;;3.55;1.00;;;13.00;99.90;;;;;;5035807;28;20475;-25
2023/12/28 05:38:48;;;;;;;3.38;1.05;;;13.10;99.90;;;;;;5035541;28;20040;-29
2023/12/28 05:41:14;;;;;;;5.03;1.23;;;13.10;99.90;;;;;;5021182;28;20021;-22
2023/12/28 05:43:40;;;;;;;3.47;1.08;;;13.10;99.90;;;;;;5037053;28;20036;-30
2023/12/28 05:46:05;;;;;;;7.00;1.50;;;13.10;99.90;;;;;;5015960;28;20049;-25
2023/12/28 05:48:31;;;;;;;5.40;1.10;;;13.10;99.90;;;;;;5035233;28;20052;-27
2023/12/28 05:50:58;;;;;;;3.95;1.15;;;13.00;99.90;;;;;;5034927;28;20555;-25
2023/12/28 05:53:24;;;;;;;6.47;1.20;;;13.10;99.90;;;;;;5032164;28;20036;-26
2023/12/28 05:55:50;;;;;;;5.80;1.30;;;13.00;99.90;;;;;;5034681;28;20041;-25
2023/12/28 05:58:16;;;;;;;4.38;1.42;;;13.00;99.90;;;;;;5033927;28;20513;-25
2023/12/28 06:00:42;;;;;;;5.20;1.57;;;13.10;99.90;;;;;;5032458;28;20458;-26
2023/12/28 06:03:08;;;;;;;6.68;1.70;;;13.00;99.90;;;;;;5035249;28;20052;-27
2023/12/28 06:05:34;;;;;;;3.95;1.30;;;13.00;99.90;;;;;;5040295;28;20022;-25
2023/12/28 06:08:00;;;;;;;6.47;1.30;;;13.00;99.90;;;;;;5034475;28;20029;-23
2023/12/28 06:10:25;;;;;;;3.55;0.90;;;13.00;99.90;;;;;;5031915;28;20032;-25
2023/12/28 06:12:51;;;;;;;5.27;1.40;;;13.00;99.90;;;;;;5035167;28;20024;-24
2023/12/28 06:15:17;;;;;;;5.35;1.00;;;13.00;99.90;;;;;;5035513;28;20026;-25
2023/12/28 06:17:43;;;;;;;5.27;1.10;;;12.90;99.90;;;;;;5020359;28;20056;-24
2023/12/28 06:20:09;;;;;;;6.03;1.13;;;12.90;99.90;;;;;;5038075;28;20312;-30
2023/12/28 06:22:38;;;;;;;3.50;0.90;;;12.80;99.90;;;;;;5031407;28;20359;-24
2023/12/28 06:25:04;;;;;;;5.97;1.40;;;12.80;99.90;;;;;;5034719;28;20420;-23
2023/12/28 06:27:30;;;;;;;4.60;1.10;;;12.80;99.90;;;;;;5035737;28;20032;-24
2023/12/28 06:29:56;;;;;;;4.68;1.20;;;12.80;99.90;;;;;;5034878;28;20480;-28
2023/12/28 06:32:22;;;;;;;9.15;1.45;;;12.70;99.90;;;;;;5039726;28;20112;-24
2023/12/28 06:34:48;;;;;;;3.50;1.20;;;12.70;99.90;;;;;;5039196;28;20028;-28
2023/12/28 06:37:15;;;;;;;5.32;1.10;;;12.70;99.90;;;;;;5007198;28;20025;-25
2023/12/28 06:39:41;;;;;;;3.90;1.08;;;12.70;99.90;;;;;;5035678;28;20029;-26
2023/12/28 06:42:07;;;;;;;5.55;1.20;;;12.60;99.90;;;;;;5034607;28;20039;-25
2023/12/28 06:44:33;;;;;;;3.77;1.00;;;12.60;99.90;;;;;;5035886;28;20557;-27
2023/12/28 06:46:59;;;;;;;4.40;1.05;;;12.60;99.90;;;;;;5032158;28;20054;-26
2023/12/28 06:49:26;;;;;;;6.07;1.13;;;12.60;99.90;;;;;;5020334;28;20078;-24
2023/12/28 06:51:52;;;;;;;4.95;1.20;;;12.60;99.90;;;;;;5032631;28;20151;-24
2023/12/28 06:54:17;;;;;;;6.70;1.40;;;12.60;99.90;;;;;;5020745;28;20112;-26
2023/12/28 06:56:43;;;;;;;5.15;1.30;;;12.50;99.90;;;;;;5036088;28;20504;-28
2023/12/28 06:59:12;;;;;;;4.00;1.10;;;12.50;99.90;;;;;;5037958;28;20021;-22
2023/12/28 07:01:41;;;;;;;5.20;1.23;;;12.60;99.90;;;;;;5033803;28;20473;-26
2023/12/28 07:04:07;;;;;;;3.50;0.88;;;12.50;99.90;;;;;;5035246;28;20044;-25
2023/12/28 07:06:33;;;;;;;4.95;1.10;;;12.50;99.90;;;;;;5034212;28;20432;-23
2023/12/28 07:08:58;;;;;;;4.73;1.07;;;12.50;99.90;;;;;;5034587;28;20096;-24
2023/12/28 07:11:24;;;;;;;5.63;1.23;;;12.40;99.90;;;;;;5036008;28;20120;-23
2023/12/28 07:13:50;;;;;;;2.87;0.80;;;12.40;99.90;;;;;;5035686;28;20029;-27
2023/12/28 07:16:15;;;;;;;4.07;1.10;;;12.50;99.90;;;;;;5035731;28;20140;-24
2023/12/28 07:18:41;;;;;;;4.03;1.10;;;12.40;99.90;;;;;;5037784;28;20017;-24
2023/12/28 07:21:11;;;;;;;6.03;1.00;;;12.40;99.90;;;;;;5034107;28;20102;-26
2023/12/28 07:23:38;;;;;;;5.40;1.20;;;12.40;99.90;;;;;;5036240;28;20086;-23
2023/12/28 07:26:04;;;;;;;7.25;1.30;;;12.40;99.90;;;;;;5036545;28;20032;-24
2023/12/28 07:28:30;;;;;;;4.10;1.20;;;12.40;99.90;;;;;;5038103;28;20025;-24
2023/12/28 07:30:56;;;;;;;6.18;1.15;;;12.40;99.90;;;;;;5023059;28;20122;-26
2023/12/28 07:33:21;;;;;;;3.60;1.00;;;12.40;99.90;;;;;;5041180;28;20053;-25
2023/12/28 07:35:48;;;;;;;4.67;1.00;;;12.30;99.90;;;;;;5039786;28;20678;-24
2023/12/28 07:38:13;;;;;;;5.65;1.25;;;13.70;99.90;;;;;;5034934;28;20530;-25
2023/12/28 07:40:39;;;;;;;4.38;1.30;;;12.30;99.90;;;;;;5037159;28;20033;-26
2023/12/28 07:43:05;;;;;;;8.87;1.43;;;12.30;99.90;;;;;;5038130;28;20036;-26
2023/12/28 07:45:31;;;;;;;5.03;1.02;;;12.30;99.90;;;;;;5021409;28;20487;-22
2023/12/28 07:48:00;;;;;;;7.78;1.30;;;12.30;99.90;;;;;;5026697;28;20082;-26
2023/12/28 07:50:26;;;;;;;6.03;0.97;;;12.30;99.90;;;;;;5035327;28;20067;-27
2023/12/28 07:52:52;;;;;;;4.55;1.23;;;12.30;99.90;;;;;;5025798;28;20029;-24
2023/12/28 07:55:18;;;;;;;4.73;1.10;;;12.30;99.90;;;;;;5036057;28;20029;-20
2023/12/28 07:57:44;;;;;;;3.13;0.70;;;12.40;99.90;;;;;;5037480;28;20538;-22
2023/12/28 08:00:10;;;;;;;5.07;0.98;;;12.30;99.90;;;;;;5038815;28;20037;-21
2023/12/28 08:02:36;;;;;;;3.17;0.85;;;12.30;99.90;;;;;;5038604;28;20517;-22
2023/12/28 08:05:02;;;;;;;5.73;0.90;;;12.30;99.90;;;;;;5038996;28;20382;-20
2023/12/28 08:07:28;;;;;;;4.28;1.20;;;12.30;99.90;;;;;;5038282;28;20025;-21
2023/12/28 08:09:53;;;;;;;9.15;1.20;;;12.30;99.90;;;;;;5032966;28;20440;-22
2023/12/28 08:12:21;;;;;;;4.43;1.03;;;12.30;99.90;;;;;;5037296;28;20483;-21
2023/12/28 08:14:47;;;;;;;6.47;1.17;;;12.30;99.90;;;;;;5041594;28;20060;-21
2023/12/28 08:17:12;;;;;;;5.82;1.13;;;12.30;99.90;;;;;;5034062;28;20711;-21
2023/12/28 08:19:38;;;;;;;5.23;1.10;;;12.30;99.90;;;;;;5036200;28;20037;-20
2023/12/28 08:22:05;;;;;;;6.07;0.98;;;12.30;99.90;;;;;;5019294;28;20037;-20
2023/12/28 08:24:32;;;;;;;3.60;1.30;;;12.40;99.90;;;;;;5033157;28;20017;-22
2023/12/28 08:27:00;;;;;;;4.70;1.30;;;12.50;99.90;;;;;;5037745;28;20091;-22
2023/12/28 08:29:27;;;;;;;7.07;1.20;;;12.50;99.90;;;;;;5038648;28;20471;-21
2023/12/28 08:31:52;;;;;;;6.78;1.63;;;12.60;99.90;;;;;;5037603;28;20116;-22
2023/12/28 08:34:18;;;;;;;6.18;1.17;;;12.70;99.90;;;;;;5035788;28;20115;-21
2023/12/28 08:36:44;;;;;;;5.47;1.57;;;12.80;99.90;;;;;;5015701;28;20025;-22
2023/12/28 08:39:10;;;;;;;5.38;1.38;;;12.90;99.90;;;;;;5034689;28;20029;-24
2023/12/28 08:41:35;;;;;;;5.70;1.20;;;12.30;99.90;;;;;;5038730;28;20029;-20
2023/12/28 08:44:01;;;;;;;8.75;1.27;;;13.10;99.90;;;;;;5037003;28;20025;-21
2023/12/28 08:46:28;;;;;;;2.97;0.90;;;13.10;99.90;;;;;;5035561;28;20113;-21
2023/12/28 08:48:54;;;;;;;4.10;1.00;;;13.20;99.90;;;;;;5036252;28;20416;-22
2023/12/28 08:51:20;;;;;;;5.25;1.00;;;13.20;99.90;;;;;;5036277;28;20248;-19
2023/12/28 08:53:46;;;;;;;6.47;1.25;;;13.20;99.90;;;;;;5035836;28;20029;-19
2023/12/28 08:56:16;;;;;;;7.70;1.53;;;13.20;99.90;;;;;;5037412;28;20086;-22
2023/12/28 08:58:43;;;;;;;7.50;1.65;;;13.20;99.90;;;;;;5035701;28;20122;-20
2023/12/28 09:01:08;;;;;;;5.40;1.10;;;13.10;99.90;;;;;;5036386;28;20045;-21
2023/12/28 09:03:34;;;;;;;5.57;1.20;;;13.10;99.90;;;;;;5037470;28;20033;-19
2023/12/28 09:06:00;;;;;;;7.77;1.20;;;13.10;99.90;;;;;;5036358;28;20825;-23
2023/12/28 09:08:25;;;;;;;6.70;1.20;;;13.10;99.90;;;;;;5021247;28;20028;-26
2023/12/28 09:10:51;;;;;;;5.87;1.13;;;13.10;99.90;;;;;;5034322;28;20068;-24
2023/12/28 09:13:17;;;;;;;4.30;1.00;;;13.10;99.90;;;;;;5019327;28;20530;-26
2023/12/28 09:15:43;;;;;;;11.30;1.60;;;13.10;99.90;;;;;;5035347;28;20095;-25
2023/12/28 09:18:09;;;;;;;5.80;1.20;;;13.10;99.90;;;;;;5036469;28;20056;-31
2023/12/28 09:20:35;;;;;;;5.80;1.03;;;13.10;99.90;;;;;;5033257;28;20033;-27
2023/12/28 09:23:01;;;;;;;8.93;1.13;;;13.10;99.90;;;;;;5036871;28;20040;-26
2023/12/28 09:25:27;;;;;;;3.58;1.00;;;13.10;99.90;;;;;;5037309;28;20032;-23
2023/12/28 09:27:53;;;;;;;4.40;1.03;;;13.10;99.90;;;;;;5004661;28;20585;-28
2023/12/28 09:30:19;;;;;;;4.82;1.10;;;13.10;99.90;;;;;;5037104;28;20037;-25
2023/12/28 09:32:45;;;;;;;3.65;1.30;;;13.10;99.90;;;;;;5030902;28;20394;-27
2023/12/28 09:35:10;;;;;;;9.43;2.00;;;13.10;99.90;;;;;;5033098;28;20575;-27
2023/12/28 09:37:36;;;;;;;8.57;1.80;;;13.10;99.90;;;;;;5036340;28;20040;-27
2023/12/28 09:40:03;;;;;;;9.07;1.83;;;13.10;99.90;;;;;;5037492;28;20037;-24
2023/12/28 09:42:58;;;;;;;5.07;1.20;;;13.20;99.90;;;;;;5019064;28;20036;-25
2023/12/28 09:45:25;;;;;;;7.47;1.42;;;13.20;99.90;;;;;;5017102;28;20175;-28
2023/12/28 09:47:52;;;;;;;5.40;1.23;;;13.30;99.90;;;;;;5036006;28;20037;-24
2023/12/28 09:50:19;;;;;;;6.15;1.38;;;13.30;99.90;;;;;;5032715;28;20018;-27
2023/12/28 09:52:45;;;;;;;5.15;1.23;;;13.30;99.90;;;;;;5036669;28;20025;-25
2023/12/28 09:55:10;;;;;;;6.93;1.80;;;12.60;99.90;;;;;;5034840;28;20033;-29
2023/12/28 09:57:37;;;;;;;4.40;1.38;;;13.40;99.90;;;;;;5034820;28;20039;-28
2023/12/28 10:00:06;;;;;;;5.53;1.15;;;13.30;99.90;;;;;;5036242;28;20045;-27
2023/12/28 10:02:33;;;;;;;7.37;1.50;;;13.40;99.90;;;;;;5033115;28;20445;-29
2023/12/28 10:05:00;;;;;;;6.03;1.83;;;13.40;99.90;;;;;;5040241;28;20037;-25
2023/12/28 10:07:26;;;;;;;9.27;1.77;;;13.40;99.90;;;;;;5034267;28;20606;-27
2023/12/28 10:09:52;;;;;;;7.23;1.90;;;13.40;99.90;;;;;;5034082;28;20040;-24
2023/12/28 10:12:19;;;;;;;6.00;1.35;;;13.40;99.90;;;;;;5033617;28;20414;-26
2023/12/28 10:14:44;;;;;;;8.00;1.67;;;13.40;99.90;;;;;;5039124;28;20025;-23
2023/12/28 10:17:10;;;;;;;6.03;1.57;;;13.40;99.90;;;;;;5033128;28;20024;-26
2023/12/28 10:19:37;;;;;;;7.80;2.10;;;13.40;99.90;;;;;;5032706;28;20108;-27
2023/12/28 10:22:04;;;;;;;6.05;1.58;;;13.40;99.90;;;;;;5027769;28;20248;-25
2023/12/28 10:24:30;;;;;;;7.30;1.40;;;13.50;99.90;;;;;;5033227;28;20432;-23
2023/12/28 10:26:56;;;;;;;6.25;1.25;;;13.40;99.90;;;;;;5034543;28;20025;-24
2023/12/28 10:29:24;;;;;;;6.07;1.13;;;13.50;99.90;;;;;;5035597;28;20333;-26
2023/12/28 10:31:51;;;;;;;9.93;1.58;;;13.50;99.90;;;;;;5034007;28;20423;-25
2023/12/28 10:34:18;;;;;;;5.60;1.17;;;13.50;99.90;;;;;;5036595;28;20029;-25
2023/12/28 10:36:45;;;;;;;5.70;1.17;;;13.50;99.90;;;;;;5034580;28;20017;-27
2023/12/28 10:39:15;;;;;;;6.43;1.50;;;13.60;99.90;;;;;;5032364;28;20025;-26
2023/12/28 10:41:46;;;;;;;6.30;1.23;;;13.60;99.90;;;;;;5028613;28;20037;-24
2023/12/28 10:44:17;;;;;;;8.30;1.55;;;13.60;99.90;;;;;;5036876;28;20017;-25
2023/12/28 10:46:44;;;;;;;5.82;1.20;;;13.60;99.90;;;;;;5035727;28;20032;-28
2023/12/28 10:49:11;;;;;;;7.63;1.17;;;13.60;99.90;;;;;;5034019;28;20018;-28
2023/12/28 10:51:43;;;;;;;8.77;1.60;;;13.60;99.90;;;;;;5034075;28;20132;-29
2023/12/28 10:54:43;;;;;;;4.77;1.20;;;13.60;99.90;;;;;;5034276;28;20465;-24
2023/12/28 10:57:32;;;;;;;9.55;1.65;;;13.70;99.90;;;;;;5038948;28;20072;-23
2023/12/28 11:00:17;;;;;;;5.47;1.30;;;13.70;99.90;;;;;;5037854;28;20543;-24
2023/12/28 11:02:45;;;;;;;7.85;1.63;;;13.70;99.90;;;;;;5041514;28;20078;-24
2023/12/28 11:05:15;;;;;;;6.95;1.75;;;13.80;99.90;;;;;;5034239;28;20431;-25
2023/12/28 11:07:42;;;;;;;5.67;1.17;;;13.90;99.90;;;;;;5037051;28;20021;-26
2023/12/28 11:10:10;;;;;;;5.93;1.13;;;13.90;99.90;;;;;;5037515;28;20029;-23
2023/12/28 11:12:36;;;;;;;6.57;1.35;;;13.90;99.90;;;;;;5039057;28;20072;-25
2023/12/28 11:15:04;;;;;;;4.55;1.17;;;14.00;99.90;;;;;;5041690;28;20033;-24
2023/12/28 11:17:31;;;;;;;6.68;1.40;;;14.00;99.90;;;;;;5039003;28;20036;-27
2023/12/28 11:19:58;;;;;;;5.13;1.10;;;14.10;99.90;;;;;;5039466;28;20072;-25
2023/12/28 11:22:25;;;;;;;4.70;1.20;;;14.00;99.90;;;;;;5037762;28;20040;-30
2023/12/28 11:24:55;;;;;;;7.63;1.83;;;14.00;99.90;;;;;;5037916;28;20025;-25
2023/12/28 11:27:21;;;;;;;6.13;1.92;;;14.10;99.90;;;;;;5032397;28;20025;-25
2023/12/28 11:29:52;;;;;;;8.27;1.60;;;14.00;99.90;;;;;;5039940;28;20033;-30
2023/12/28 11:32:19;;;;;;;4.60;1.13;;;14.00;99.90;;;;;;5037294;28;20075;-28
2023/12/28 11:34:45;;;;;;;4.20;1.00;;;14.00;99.90;;;;;;5037877;28;20021;-25
2023/12/28 11:37:18;;;;;;;5.43;1.20;;;14.00;99.90;;;;;;5040229;28;20033;-27
2023/12/28 11:39:44;;;;;;;4.55;1.27;;;14.00;99.90;;;;;;5038814;28;20429;-23
2023/12/28 11:42:11;;;;;;;7.17;1.10;;;14.00;99.90;;;;;;5035069;28;20523;-25
2023/12/28 11:44:42;;;;;;;3.63;1.20;;;14.00;99.90;;;;;;5043986;28;20037;-25
2023/12/28 11:47:25;;;;;;;4.80;1.15;;;14.10;99.90;;;;;;5034990;28;20029;-26
2023/12/28 11:49:59;;;;;;;3.17;0.73;;;14.10;99.90;;;;;;5037219;28;20034;-24
2023/12/28 11:52:30;;;;;;;5.88;1.10;;;14.10;99.90;;;;;;5040587;28;20044;-24
2023/12/28 11:54:57;;;;;;;4.60;1.10;;;14.10;99.90;;;;;;5041150;28;20033;-23
2023/12/28 11:57:23;;;;;;;6.63;1.23;;;14.20;99.90;;;;;;5039916;28;20501;-24
2023/12/28 12:00:04;;;;;;;4.78;1.15;;;14.20;99.90;;;;;;5038430;28;20173;-23
2023/12/28 12:02:29;;;;;;;6.37;1.20;;;14.20;99.90;;;;;;5040615;28;20060;-26
2023/12/28 12:05:01;;;;;;;9.18;1.58;;;13.10;99.90;;;;;;5039931;28;20094;-25
2023/12/28 12:07:27;;;;;;;7.95;1.10;;;14.20;99.90;;;;;;5026579;28;20521;-24
2023/12/28 12:09:57;;;;;;;5.60;1.30;;;14.20;99.90;;;;;;5037116;28;20022;-25
2023/12/28 12:12:23;;;;;;;7.75;1.45;;;14.20;99.90;;;;;;5036107;28;20036;-25
2023/12/28 12:14:49;;;;;;;5.80;1.52;;;14.20;99.90;;;;;;5024726;28;20037;-26
2023/12/28 12:17:14;;;;;;;5.00;1.30;;;14.20;99.90;;;;;;5034916;28;20025;-26
2023/12/28 12:19:40;;;;;;;5.70;1.08;;;14.20;99.90;;;;;;5034481;28;20059;-25
2023/12/28 12:22:06;;;;;;;5.73;1.37;;;14.20;99.90;;;;;;5034792;28;20037;-25
2023/12/28 12:24:33;;;;;;;6.65;1.38;;;14.20;99.90;;;;;;5033220;28;20056;-25
2023/12/28 12:27:02;;;;;;;8.43;1.73;;;14.20;99.90;;;;;;5033040;28;20126;-26
2023/12/28 12:29:30;;;;;;;5.75;1.50;;;14.20;99.90;;;;;;5004375;28;20442;-28
2023/12/28 12:31:56;;;;;;;7.05;1.40;;;14.20;99.90;;;;;;5033452;28;20071;-24
2023/12/28 12:34:22;;;;;;;7.95;1.80;;;14.20;99.90;;;;;;5033009;28;20037;-26
2023/12/28 12:36:50;;;;;;;6.27;1.20;;;14.20;99.90;;;;;;5034912;28;20029;-20
2023/12/28 12:39:16;;;;;;;8.95;1.70;;;14.20;99.90;;;;;;5030431;28;20049;-21
2023/12/28 12:41:42;;;;;;;6.20;1.35;;;14.20;99.90;;;;;;5034995;28;20132;-21
2023/12/28 12:44:10;;;;;;;6.23;1.30;;;14.20;99.90;;;;;;5016672;28;20033;-21
2023/12/28 12:46:36;;;;;;;7.82;1.98;;;14.30;99.90;;;;;;5032414;28;20017;-23